sensor_id;sensor_type;location;lat;lon;timestamp;pressure;altitude;pressure_sealevel;temperature;humidity
70370;BME280;57790;51.356;-2.906;2023-03-22T00:02:48;100195.47;;;12.35;100.00
70370;BME280;57790;51.356;-2.906;2023-03-22T00:05:48;100191.63;;;12.38;100.00
70370;BME280;57790;51.356;-2.906;2023-03-22T00:08:51;100180.53;;;12.34;100.00
70370;BME280;57790;51.356;-2.906;2023-03-22T00:11:52;100174.47;;;12.40;100.00
70370;BME280;57790;51.356;-2.906;2023-03-22T00:14:52;100147.50;;;12.43;100.00
70370;BME280;57790;51.356;-2.906;2023-03-22T00:17:55;100143.59;;;12.39;100.00
70370;BME280;57790;51.356;-2.906;2023-03-22T00:20:58;100137.63;;;12.37;100.00
70370;BME280;57790;51.356;-2.906;2023-03-22T00:23:58;100140.72;;;12.41;100.00
70370;BME280;57790;51.356;-2.906;2023-03-22T00:26:59;100129.91;;;12.42;100.00
70370;BME280;57790;51.356;-2.906;2023-03-22T00:30:00;100130.09;;;12.41;100.00
70370;BME280;57790;51.356;-2.906;2023-03-22T00:33:00;100124.44;;;12.29;100.00
70370;BME280;57790;51.356;-2.906;2023-03-22T00:36:03;100116.44;;;12.23;100.00
70370;BME280;57790;51.356;-2.906;2023-03-22T00:39:04;100101.25;;;12.16;100.00
70370;BME280;57790;51.356;-2.906;2023-03-22T00:42:04;100108.00;;;12.19;100.00
70370;BME280;57790;51.356;-2.906;2023-03-22T00:45:07;100096.38;;;12.20;100.00
70370;BME280;57790;51.356;-2.906;2023-03-22T00:48:09;100099.28;;;12.25;100.00
70370;BME280;57790;51.356;-2.906;2023-03-22T00:51:11;100081.63;;;12.17;100.00
70370;BME280;57790;51.356;-2.906;2023-03-22T00:54:11;100087.13;;;12.16;100.00
70370;BME280;57790;51.356;-2.906;2023-03-22T00:57:12;100087.38;;;12.21;100.00
70370;BME280;57790;51.356;-2.906;2023-03-22T01:00:13;100077.25;;;12.10;100.00
70370;BME280;57790;51.356;-2.906;2023-03-22T01:03:15;100074.78;;;12.08;100.00
70370;BME280;57790;51.356;-2.906;2023-03-22T01:06:16;100070.72;;;12.12;100.00
70370;BME280;57790;51.356;-2.906;2023-03-22T01:09:16;100068.25;;;12.11;100.00
70370;BME280;57790;51.356;-2.906;2023-03-22T01:12:17;100057.81;;;12.09;100.00
70370;BME280;57790;51.356;-2.906;2023-03-22T01:15:18;100056.19;;;12.08;100.00
70370;BME280;57790;51.356;-2.906;2023-03-22T01:18:19;100058.13;;;12.00;100.00
70370;BME280;57790;51.356;-2.906;2023-03-22T01:21:19;100053.63;;;12.00;100.00
70370;BME280;57790;51.356;-2.906;2023-03-22T01:24:20;100033.72;;;12.11;100.00
70370;BME280;57790;51.356;-2.906;2023-03-22T01:27:20;100039.38;;;12.01;100.00
70370;BME280;57790;51.356;-2.906;2023-03-22T01:30:20;100040.34;;;12.00;100.00
70370;BME280;57790;51.356;-2.906;2023-03-22T01:33:21;100046.69;;;11.99;100.00
70370;BME280;57790;51.356;-2.906;2023-03-22T01:36:21;100024.81;;;11.97;100.00
70370;BME280;57790;51.356;-2.906;2023-03-22T01:39:22;100018.22;;;11.93;100.00
70370;BME280;57790;51.356;-2.906;2023-03-22T01:42:23;100022.97;;;11.98;100.00
70370;BME280;57790;51.356;-2.906;2023-03-22T01:45:38;100020.59;;;12.03;100.00
70370;BME280;57790;51.356;-2.906;2023-03-22T01:48:41;100010.78;;;12.03;100.00
70370;BME280;57790;51.356;-2.906;2023-03-22T01:51:48;100007.84;;;11.98;100.00
70370;BME280;57790;51.356;-2.906;2023-03-22T01:54:51;100001.47;;;11.93;100.00
70370;BME280;57790;51.356;-2.906;2023-03-22T01:57:53;100000.84;;;11.90;100.00
70370;BME280;57790;51.356;-2.906;2023-03-22T02:00:54;99997.56;;;11.88;100.00
70370;BME280;57790;51.356;-2.906;2023-03-22T02:03:58;99987.47;;;11.84;100.00
70370;BME280;57790;51.356;-2.906;2023-03-22T02:07:05;99990.13;;;11.84;100.00
70370;BME280;57790;51.356;-2.906;2023-03-22T02:10:18;99987.94;;;11.87;100.00
70370;BME280;57790;51.356;-2.906;2023-03-22T02:16:57;99977.56;;;11.93;100.00
70370;BME280;57790;51.356;-2.906;2023-03-22T02:26:56;99988.19;;;11.93;100.00
70370;BME280;57790;51.356;-2.906;2023-03-22T02:30:20;99981.25;;;11.91;100.00
70370;BME280;57790;51.356;-2.906;2023-03-22T02:40:37;99978.50;;;11.85;100.00
70370;BME280;57790;51.356;-2.906;2023-03-22T02:43:57;99973.19;;;11.85;100.00
70370;BME280;57790;51.356;-2.906;2023-03-22T02:50:13;99963.03;;;11.88;100.00
70370;BME280;57790;51.356;-2.906;2023-03-22T02:56:22;99958.66;;;11.81;100.00
70370;BME280;57790;51.356;-2.906;2023-03-22T02:59:25;99951.13;;;11.84;100.00
70370;BME280;57790;51.356;-2.906;2023-03-22T03:02:28;99956.06;;;11.87;100.00
70370;BME280;57790;51.356;-2.906;2023-03-22T03:05:31;99939.06;;;11.82;100.00
70370;BME280;57790;51.356;-2.906;2023-03-22T03:08:33;99933.34;;;11.85;100.00
70370;BME280;57790;51.356;-2.906;2023-03-22T03:11:35;99933.00;;;11.88;100.00
70370;BME280;57790;51.356;-2.906;2023-03-22T03:14:36;99932.19;;;11.87;100.00
70370;BME280;57790;51.356;-2.906;2023-03-22T03:21:01;99927.22;;;11.84;100.00
70370;BME280;57790;51.356;-2.906;2023-03-22T03:24:26;99928.31;;;11.90;100.00
70370;BME280;57790;51.356;-2.906;2023-03-22T03:27:39;99932.19;;;11.87;100.00
70370;BME280;57790;51.356;-2.906;2023-03-22T03:30:54;99935.25;;;11.91;100.00
70370;BME280;57790;51.356;-2.906;2023-03-22T03:37:30;99923.38;;;11.87;100.00
70370;BME280;57790;51.356;-2.906;2023-03-22T03:40:36;99924.13;;;11.81;100.00
70370;BME280;57790;51.356;-2.906;2023-03-22T03:43:40;99916.16;;;11.81;100.00
70370;BME280;57790;51.356;-2.906;2023-03-22T03:46:43;99915.16;;;11.82;100.00
70370;BME280;57790;51.356;-2.906;2023-03-22T03:49:44;99920.34;;;11.90;100.00
70370;BME280;57790;51.356;-2.906;2023-03-22T03:52:45;99936.41;;;11.82;100.00
70370;BME280;57790;51.356;-2.906;2023-03-22T03:55:45;99938.94;;;11.90;100.00
70370;BME280;57790;51.356;-2.906;2023-03-22T03:58:46;99973.03;;;11.86;100.00
70370;BME280;57790;51.356;-2.906;2023-03-22T04:01:46;99981.44;;;11.90;100.00
70370;BME280;57790;51.356;-2.906;2023-03-22T04:04:50;100020.84;;;11.86;100.00
70370;BME280;57790;51.356;-2.906;2023-03-22T04:07:51;100010.38;;;11.85;100.00
70370;BME280;57790;51.356;-2.906;2023-03-22T04:10:51;99996.28;;;11.84;100.00
70370;BME280;57790;51.356;-2.906;2023-03-22T04:13:52;99998.72;;;11.86;100.00
70370;BME280;57790;51.356;-2.906;2023-03-22T04:16:53;100009.34;;;11.86;100.00
70370;BME280;57790;51.356;-2.906;2023-03-22T04:19:57;99996.75;;;11.88;100.00
70370;BME280;57790;51.356;-2.906;2023-03-22T04:22:57;99997.91;;;11.85;100.00
70370;BME280;57790;51.356;-2.906;2023-03-22T04:25:58;99994.28;;;11.86;100.00
70370;BME280;57790;51.356;-2.906;2023-03-22T04:28:59;99986.47;;;11.85;100.00
70370;BME280;57790;51.356;-2.906;2023-03-22T04:32:02;100010.22;;;11.86;100.00
70370;BME280;57790;51.356;-2.906;2023-03-22T04:35:02;100024.13;;;11.88;100.00
70370;BME280;57790;51.356;-2.906;2023-03-22T04:38:03;100022.47;;;11.87;100.00
70370;BME280;57790;51.356;-2.906;2023-03-22T04:41:04;100019.16;;;11.85;100.00
70370;BME280;57790;51.356;-2.906;2023-03-22T04:44:06;100019.00;;;11.87;100.00
70370;BME280;57790;51.356;-2.906;2023-03-22T04:47:06;100023.50;;;11.86;100.00
70370;BME280;57790;51.356;-2.906;2023-03-22T04:50:07;100018.63;;;11.90;100.00
70370;BME280;57790;51.356;-2.906;2023-03-22T04:53:08;100027.59;;;11.89;100.00
70370;BME280;57790;51.356;-2.906;2023-03-22T04:56:13;100025.75;;;11.89;100.00
70370;BME280;57790;51.356;-2.906;2023-03-22T04:59:14;100037.41;;;11.88;100.00
70370;BME280;57790;51.356;-2.906;2023-03-22T05:02:17;100020.63;;;11.88;100.00
70370;BME280;57790;51.356;-2.906;2023-03-22T05:05:18;100049.03;;;11.87;100.00
70370;BME280;57790;51.356;-2.906;2023-03-22T05:08:20;100042.09;;;11.86;100.00
70370;BME280;57790;51.356;-2.906;2023-03-22T05:11:20;100037.59;;;11.87;100.00
70370;BME280;57790;51.356;-2.906;2023-03-22T05:14:23;100034.28;;;11.85;100.00
70370;BME280;57790;51.356;-2.906;2023-03-22T05:17:23;100027.94;;;11.86;100.00
70370;BME280;57790;51.356;-2.906;2023-03-22T05:20:24;100037.31;;;11.82;100.00
70370;BME280;57790;51.356;-2.906;2023-03-22T05:23:24;100032.00;;;11.82;100.00
70370;BME280;57790;51.356;-2.906;2023-03-22T05:26:25;100042.81;;;11.80;100.00
70370;BME280;57790;51.356;-2.906;2023-03-22T05:29:26;100037.69;;;11.79;100.00
70370;BME280;57790;51.356;-2.906;2023-03-22T05:32:27;100034.19;;;11.78;100.00
70370;BME280;57790;51.356;-2.906;2023-03-22T05:35:29;100038.69;;;11.78;100.00
70370;BME280;57790;51.356;-2.906;2023-03-22T05:38:30;100037.22;;;11.75;100.00
70370;BME280;57790;51.356;-2.906;2023-03-22T05:41:30;100049.69;;;11.75;100.00
70370;BME280;57790;51.356;-2.906;2023-03-22T05:44:32;100042.91;;;11.72;100.00
70370;BME280;57790;51.356;-2.906;2023-03-22T05:47:33;100037.41;;;11.74;100.00
70370;BME280;57790;51.356;-2.906;2023-03-22T05:50:34;100044.75;;;11.72;100.00
70370;BME280;57790;51.356;-2.906;2023-03-22T05:53:35;100056.34;;;11.71;100.00
70370;BME280;57790;51.356;-2.906;2023-03-22T05:56:35;100057.53;;;11.68;100.00
70370;BME280;57790;51.356;-2.906;2023-03-22T05:59:36;100049.97;;;11.65;100.00
70370;BME280;57790;51.356;-2.906;2023-03-22T06:02:36;100057.94;;;11.65;100.00
70370;BME280;57790;51.356;-2.906;2023-03-22T06:05:36;100054.63;;;11.63;100.00
70370;BME280;57790;51.356;-2.906;2023-03-22T06:08:37;100064.81;;;11.59;100.00
70370;BME280;57790;51.356;-2.906;2023-03-22T06:11:38;100060.50;;;11.58;100.00
70370;BME280;57790;51.356;-2.906;2023-03-22T06:14:39;100071.13;;;11.58;100.00
70370;BME280;57790;51.356;-2.906;2023-03-22T06:17:39;100059.84;;;11.56;100.00
70370;BME280;57790;51.356;-2.906;2023-03-22T06:20:40;100065.81;;;11.58;100.00
70370;BME280;57790;51.356;-2.906;2023-03-22T06:23:41;100067.00;;;11.56;100.00
70370;BME280;57790;51.356;-2.906;2023-03-22T06:26:42;100075.97;;;11.55;100.00
70370;BME280;57790;51.356;-2.906;2023-03-22T06:29:43;100077.59;;;11.56;100.00
70370;BME280;57790;51.356;-2.906;2023-03-22T06:32:48;100085.75;;;11.54;100.00
70370;BME280;57790;51.356;-2.906;2023-03-22T06:35:49;100085.75;;;11.54;100.00
70370;BME280;57790;51.356;-2.906;2023-03-22T06:38:49;100089.44;;;11.53;100.00
70370;BME280;57790;51.356;-2.906;2023-03-22T06:41:50;100102.69;;;11.53;100.00
70370;BME280;57790;51.356;-2.906;2023-03-22T06:44:50;100112.50;;;11.53;100.00
70370;BME280;57790;51.356;-2.906;2023-03-22T06:47:51;100128.25;;;11.54;100.00
70370;BME280;57790;51.356;-2.906;2023-03-22T06:50:51;100126.97;;;11.50;100.00
70370;BME280;57790;51.356;-2.906;2023-03-22T06:53:51;100126.97;;;11.50;100.00
70370;BME280;57790;51.356;-2.906;2023-03-22T06:56:52;100126.31;;;11.48;100.00
70370;BME280;57790;51.356;-2.906;2023-03-22T06:59:52;100128.97;;;11.48;100.00
70370;BME280;57790;51.356;-2.906;2023-03-22T07:02:53;100128.34;;;11.46;100.00
70370;BME280;57790;51.356;-2.906;2023-03-22T07:06:04;100130.81;;;11.48;100.00
70370;BME280;57790;51.356;-2.906;2023-03-22T07:09:05;100132.00;;;11.45;100.00
70370;BME280;57790;51.356;-2.906;2023-03-22T07:12:05;100138.78;;;11.48;100.00
70370;BME280;57790;51.356;-2.906;2023-03-22T07:15:06;100134.66;;;11.45;100.00
70370;BME280;57790;51.356;-2.906;2023-03-22T07:18:07;100133.09;;;11.51;100.00
70370;BME280;57790;51.356;-2.906;2023-03-22T07:21:07;100134.09;;;11.50;100.00
70370;BME280;57790;51.356;-2.906;2023-03-22T07:24:08;100124.31;;;11.50;100.00
70370;BME280;57790;51.356;-2.906;2023-03-22T07:27:11;100127.16;;;11.49;100.00
70370;BME280;57790;51.356;-2.906;2023-03-22T07:30:11;100132.28;;;11.50;100.00
70370;BME280;57790;51.356;-2.906;2023-03-22T07:33:12;100134.09;;;11.50;100.00
70370;BME280;57790;51.356;-2.906;2023-03-22T07:36:13;100133.28;;;11.49;100.00
70370;BME280;57790;51.356;-2.906;2023-03-22T07:39:13;100132.28;;;11.50;100.00
70370;BME280;57790;51.356;-2.906;2023-03-22T07:42:14;100132.28;;;11.50;100.00
70370;BME280;57790;51.356;-2.906;2023-03-22T07:45:16;100127.41;;;11.54;100.00
70370;BME280;57790;51.356;-2.906;2023-03-22T07:48:18;100135.94;;;11.49;100.00
70370;BME280;57790;51.356;-2.906;2023-03-22T07:51:19;100134.56;;;11.53;100.00
70370;BME280;57790;51.356;-2.906;2023-03-22T07:54:19;100142.53;;;11.53;100.00
70370;BME280;57790;51.356;-2.906;2023-03-22T07:57:20;100136.19;;;11.54;100.00
70370;BME280;57790;51.356;-2.906;2023-03-22T08:00:20;100134.38;;;11.55;100.00
70370;BME280;57790;51.356;-2.906;2023-03-22T08:03:21;100130.81;;;11.62;100.00
70370;BME280;57790;51.356;-2.906;2023-03-22T08:06:22;100124.94;;;11.67;100.00
70370;BME280;57790;51.356;-2.906;2023-03-22T08:09:23;100124.56;;;11.70;100.00
70370;BME280;57790;51.356;-2.906;2023-03-22T08:12:24;100129.06;;;11.70;100.00
70370;BME280;57790;51.356;-2.906;2023-03-22T08:15:27;100133.34;;;11.71;100.00
70370;BME280;57790;51.356;-2.906;2023-03-22T08:18:27;100127.69;;;11.74;100.00
70370;BME280;57790;51.356;-2.906;2023-03-22T08:21:28;100123.41;;;11.73;100.00
70370;BME280;57790;51.356;-2.906;2023-03-22T08:24:28;100127.50;;;11.75;100.00
70370;BME280;57790;51.356;-2.906;2023-03-22T08:27:29;100129.34;;;11.75;100.00
70370;BME280;57790;51.356;-2.906;2023-03-22T08:30:30;100127.78;;;11.80;100.00
70370;BME280;57790;51.356;-2.906;2023-03-22T08:33:32;100127.59;;;11.82;100.00
70370;BME280;57790;51.356;-2.906;2023-03-22T08:36:32;100136.00;;;11.85;100.00
70370;BME280;57790;51.356;-2.906;2023-03-22T08:39:33;100138.97;;;11.90;100.00
70370;BME280;57790;51.356;-2.906;2023-03-22T08:42:34;100149.66;;;11.97;100.00
70370;BME280;57790;51.356;-2.906;2023-03-22T08:45:35;100144.34;;;11.97;100.00
70370;BME280;57790;51.356;-2.906;2023-03-22T08:48:36;100144.88;;;12.07;100.00
70370;BME280;57790;51.356;-2.906;2023-03-22T08:51:38;100147.91;;;12.04;100.00
70370;BME280;57790;51.356;-2.906;2023-03-22T08:54:38;100154.25;;;12.03;100.00
70370;BME280;57790;51.356;-2.906;2023-03-22T08:57:39;100153.91;;;12.13;100.00
70370;BME280;57790;51.356;-2.906;2023-03-22T09:00:39;100147.16;;;12.10;100.00
70370;BME280;57790;51.356;-2.906;2023-03-22T09:03:40;100141.66;;;12.12;100.00
70370;BME280;57790;51.356;-2.906;2023-03-22T09:06:41;100161.34;;;12.17;100.00
70370;BME280;57790;51.356;-2.906;2023-03-22T09:09:45;100157.38;;;12.28;100.00
70370;BME280;57790;51.356;-2.906;2023-03-22T09:12:45;100148.56;;;12.28;100.00
70370;BME280;57790;51.356;-2.906;2023-03-22T09:15:46;100144.53;;;12.32;100.00
70370;BME280;57790;51.356;-2.906;2023-03-22T09:18:47;100144.16;;;12.35;100.00
70370;BME280;57790;51.356;-2.906;2023-03-22T09:21:47;100138.22;;;12.33;100.00
70370;BME280;57790;51.356;-2.906;2023-03-22T09:24:47;100139.09;;;12.40;100.00
70370;BME280;57790;51.356;-2.906;2023-03-22T09:27:48;100137.88;;;12.42;100.00
70370;BME280;57790;51.356;-2.906;2023-03-22T09:30:49;100140.34;;;12.44;100.00
70370;BME280;57790;51.356;-2.906;2023-03-22T09:33:50;100136.13;;;12.49;100.00
70370;BME280;57790;51.356;-2.906;2023-03-22T09:36:50;100131.00;;;12.48;100.00
70370;BME280;57790;51.356;-2.906;2023-03-22T09:39:51;100126.22;;;12.43;100.00
70370;BME280;57790;51.356;-2.906;2023-03-22T09:42:54;100131.75;;;12.42;100.00
70370;BME280;57790;51.356;-2.906;2023-03-22T09:45:57;100120.44;;;12.33;100.00
70370;BME280;57790;51.356;-2.906;2023-03-22T09:49:00;100128.69;;;12.24;100.00
70370;BME280;57790;51.356;-2.906;2023-03-22T09:52:08;100137.84;;;12.36;100.00
70370;BME280;57790;51.356;-2.906;2023-03-22T09:55:18;100135.41;;;12.41;100.00
70370;BME280;57790;51.356;-2.906;2023-03-22T09:58:27;100128.03;;;12.36;100.00
70370;BME280;57790;51.356;-2.906;2023-03-22T10:01:46;100141.84;;;12.46;100.00
70370;BME280;57790;51.356;-2.906;2023-03-22T10:05:00;100141.88;;;12.53;100.00
70370;BME280;57790;51.356;-2.906;2023-03-22T10:11:43;100129.91;;;12.64;100.00
70370;BME280;57790;51.356;-2.906;2023-03-22T10:14:58;100127.06;;;12.65;100.00
70370;BME280;57790;51.356;-2.906;2023-03-22T10:18:05;100126.94;;;12.73;100.00
70370;BME280;57790;51.356;-2.906;2023-03-22T10:21:08;100130.78;;;12.71;100.00
70370;BME280;57790;51.356;-2.906;2023-03-22T10:24:18;100133.09;;;12.74;100.00
70370;BME280;57790;51.356;-2.906;2023-03-22T10:27:21;100145.81;;;12.78;100.00
70370;BME280;57790;51.356;-2.906;2023-03-22T10:30:26;100124.53;;;12.78;100.00
70370;BME280;57790;51.356;-2.906;2023-03-22T10:33:51;100125.84;;;12.89;100.00
70370;BME280;57790;51.356;-2.906;2023-03-22T10:36:54;100115.75;;;13.06;100.00
70370;BME280;57790;51.356;-2.906;2023-03-22T10:39:57;100119.16;;;13.00;100.00
70370;BME280;57790;51.356;-2.906;2023-03-22T10:43:06;100108.56;;;13.06;100.00
70370;BME280;57790;51.356;-2.906;2023-03-22T10:46:13;100101.25;;;13.15;100.00
70370;BME280;57790;51.356;-2.906;2023-03-22T10:49:23;100101.25;;;13.15;100.00
70370;BME280;57790;51.356;-2.906;2023-03-22T10:52:30;100093.56;;;13.20;100.00
70370;BME280;57790;51.356;-2.906;2023-03-22T10:55:40;100085.94;;;13.17;100.00
70370;BME280;57790;51.356;-2.906;2023-03-22T10:58:41;100096.22;;;13.20;100.00
70370;BME280;57790;51.356;-2.906;2023-03-22T11:01:43;100079.84;;;13.23;100.00
70370;BME280;57790;51.356;-2.906;2023-03-22T11:04:52;100083.34;;;13.30;100.00
70370;BME280;57790;51.356;-2.906;2023-03-22T11:07:53;100082.78;;;13.35;100.00
70370;BME280;57790;51.356;-2.906;2023-03-22T11:10:56;100076.84;;;13.39;100.00
70370;BME280;57790;51.356;-2.906;2023-03-22T11:20:06;100079.16;;;13.49;100.00
70370;BME280;57790;51.356;-2.906;2023-03-22T11:23:11;100070.38;;;13.55;100.00
70370;BME280;57790;51.356;-2.906;2023-03-22T11:26:25;100075.97;;;13.67;100.00
70370;BME280;57790;51.356;-2.906;2023-03-22T11:29:26;100073.28;;;13.67;100.00
70370;BME280;57790;51.356;-2.906;2023-03-22T11:32:30;100075.97;;;13.67;100.00
70370;BME280;57790;51.356;-2.906;2023-03-22T11:35:34;100064.50;;;13.73;100.00
70370;BME280;57790;51.356;-2.906;2023-03-22T11:38:37;100067.56;;;13.70;100.00
70370;BME280;57790;51.356;-2.906;2023-03-22T11:41:39;100062.69;;;13.80;100.00
70370;BME280;57790;51.356;-2.906;2023-03-22T11:44:40;100074.97;;;13.75;100.00
70370;BME280;57790;51.356;-2.906;2023-03-22T11:47:40;100075.59;;;13.77;100.00
70370;BME280;57790;51.356;-2.906;2023-03-22T11:50:43;100073.34;;;13.80;100.00
70370;BME280;57790;51.356;-2.906;2023-03-22T11:53:46;100067.22;;;13.86;100.00
70370;BME280;57790;51.356;-2.906;2023-03-22T11:56:48;100072.16;;;13.89;100.00
70370;BME280;57790;51.356;-2.906;2023-03-22T12:00:02;100086.31;;;13.96;100.00
70370;BME280;57790;51.356;-2.906;2023-03-22T12:03:15;100074.41;;;13.99;100.00
70370;BME280;57790;51.356;-2.906;2023-03-22T12:06:28;100068.06;;;13.93;100.00
70370;BME280;57790;51.356;-2.906;2023-03-22T12:13:23;100080.78;;;13.98;100.00
70370;BME280;57790;51.356;-2.906;2023-03-22T12:16:35;100076.69;;;14.02;100.00
70370;BME280;57790;51.356;-2.906;2023-03-22T12:22:53;100063.19;;;14.04;100.00
70370;BME280;57790;51.356;-2.906;2023-03-22T12:25:55;100067.91;;;14.08;100.00
70370;BME280;57790;51.356;-2.906;2023-03-22T12:29:00;100069.94;;;14.13;100.00
70370;BME280;57790;51.356;-2.906;2023-03-22T12:32:06;100071.19;;;14.10;100.00
70370;BME280;57790;51.356;-2.906;2023-03-22T12:35:15;100064.44;;;14.21;100.00
70370;BME280;57790;51.356;-2.906;2023-03-22T12:41:37;100056.00;;;14.17;100.00
70370;BME280;57790;51.356;-2.906;2023-03-22T12:44:40;100043.31;;;14.19;100.00
70370;BME280;57790;51.356;-2.906;2023-03-22T12:47:49;100033.06;;;14.23;100.00
70370;BME280;57790;51.356;-2.906;2023-03-22T12:50:58;100028.31;;;14.12;100.00
70370;BME280;57790;51.356;-2.906;2023-03-22T12:53:59;100028.13;;;14.20;100.00
70370;BME280;57790;51.356;-2.906;2023-03-22T12:57:00;100021.97;;;14.26;100.00
70370;BME280;57790;51.356;-2.906;2023-03-22T13:00:05;100014.41;;;14.23;100.00
70370;BME280;57790;51.356;-2.906;2023-03-22T13:09:37;100006.19;;;14.18;100.00
70370;BME280;57790;51.356;-2.906;2023-03-22T13:12:39;99995.53;;;14.18;100.00
70370;BME280;57790;51.356;-2.906;2023-03-22T13:19:27;99982.19;;;14.24;100.00
70370;BME280;57790;51.356;-2.906;2023-03-22T13:26:00;99961.69;;;14.25;100.00
70370;BME280;57790;51.356;-2.906;2023-03-22T13:29:09;99982.22;;;14.18;100.00
70370;BME280;57790;51.356;-2.906;2023-03-22T13:35:48;99991.22;;;14.23;100.00
70370;BME280;57790;51.356;-2.906;2023-03-22T13:38:56;99998.19;;;14.31;100.00
70370;BME280;57790;51.356;-2.906;2023-03-22T13:42:15;99984.47;;;14.34;100.00
70370;BME280;57790;51.356;-2.906;2023-03-22T13:45:31;99985.06;;;14.36;100.00
70370;BME280;57790;51.356;-2.906;2023-03-22T13:51:49;99983.03;;;14.45;100.00
70370;BME280;57790;51.356;-2.906;2023-03-22T13:54:50;99980.34;;;14.38;100.00
70370;BME280;57790;51.356;-2.906;2023-03-22T13:57:57;99978.53;;;14.32;100.00
70370;BME280;57790;51.356;-2.906;2023-03-22T14:00:58;99980.97;;;14.34;100.00
70370;BME280;57790;51.356;-2.906;2023-03-22T14:04:03;99978.53;;;14.32;100.00
70370;BME280;57790;51.356;-2.906;2023-03-22T14:07:25;99984.47;;;14.34;100.00
70370;BME280;57790;51.356;-2.906;2023-03-22T14:10:47;99962.72;;;14.37;100.00
70370;BME280;57790;51.356;-2.906;2023-03-22T14:13:51;99960.25;;;14.36;100.00
70370;BME280;57790;51.356;-2.906;2023-03-22T14:17:01;99953.50;;;14.33;100.00
70370;BME280;57790;51.356;-2.906;2023-03-22T14:20:03;99952.03;;;14.37;100.00
70370;BME280;57790;51.356;-2.906;2023-03-22T14:23:15;99959.66;;;14.34;100.00
70370;BME280;57790;51.356;-2.906;2023-03-22T14:26:21;99953.91;;;14.37;100.00
70370;BME280;57790;51.356;-2.906;2023-03-22T14:29:25;99947.09;;;14.41;100.00
70370;BME280;57790;51.356;-2.906;2023-03-22T14:32:27;99948.16;;;14.46;100.00
70370;BME280;57790;51.356;-2.906;2023-03-22T14:35:34;99959.03;;;14.45;100.00
70370;BME280;57790;51.356;-2.906;2023-03-22T14:38:39;99963.53;;;14.44;100.00
70370;BME280;57790;51.356;-2.906;2023-03-22T14:45:21;99943.66;;;14.47;100.00
70370;BME280;57790;51.356;-2.906;2023-03-22T14:48:23;99945.88;;;14.43;100.00
70370;BME280;57790;51.356;-2.906;2023-03-22T14:51:34;99949.56;;;14.42;100.00
70370;BME280;57790;51.356;-2.906;2023-03-22T14:54:36;99928.66;;;14.46;100.00
70370;BME280;57790;51.356;-2.906;2023-03-22T14:57:44;99939.53;;;14.44;100.00
70370;BME280;57790;51.356;-2.906;2023-03-22T15:00:46;99927.03;;;14.45;100.00
70370;BME280;57790;51.356;-2.906;2023-03-22T15:03:48;99933.41;;;14.50;100.00
70370;BME280;57790;51.356;-2.906;2023-03-22T15:06:57;99927.25;;;14.50;100.00
70370;BME280;57790;51.356;-2.906;2023-03-22T15:10:10;99914.94;;;14.49;100.00
70370;BME280;57790;51.356;-2.906;2023-03-22T15:13:11;99904.47;;;14.47;100.00
70370;BME280;57790;51.356;-2.906;2023-03-22T15:16:17;99885.16;;;14.45;100.00
70370;BME280;57790;51.356;-2.906;2023-03-22T15:19:20;99876.13;;;14.46;100.00
70370;BME280;57790;51.356;-2.906;2023-03-22T15:22:21;99866.31;;;14.47;100.00
70370;BME280;57790;51.356;-2.906;2023-03-22T15:25:33;99858.91;;;14.42;100.00
70370;BME280;57790;51.356;-2.906;2023-03-22T15:28:41;99859.13;;;14.47;100.00
70370;BME280;57790;51.356;-2.906;2023-03-22T15:31:44;99861.81;;;14.47;100.00
70370;BME280;57790;51.356;-2.906;2023-03-22T15:34:46;99844.56;;;14.50;100.00
70370;BME280;57790;51.356;-2.906;2023-03-22T15:37:51;99852.78;;;14.48;100.00
70370;BME280;57790;51.356;-2.906;2023-03-22T15:40:52;99836.78;;;14.48;100.00
70370;BME280;57790;51.356;-2.906;2023-03-22T15:44:48;99814.41;;;14.49;100.00
70370;BME280;57790;51.356;-2.906;2023-03-22T15:47:21;99794.69;;;14.50;100.00
70370;BME280;57790;51.356;-2.906;2023-03-22T15:50:23;99789.31;;;14.57;100.00
70370;BME280;57790;51.356;-2.906;2023-03-22T15:53:29;99774.75;;;14.59;100.00
70370;BME280;57790;51.356;-2.906;2023-03-22T15:56:33;99766.34;;;14.63;100.00
70370;BME280;57790;51.356;-2.906;2023-03-22T15:59:51;99787.47;;;14.64;100.00
70370;BME280;57790;51.356;-2.906;2023-03-22T16:02:56;99802.66;;;14.64;100.00
70370;BME280;57790;51.356;-2.906;2023-03-22T16:05:56;99807.16;;;14.63;100.00
70370;BME280;57790;51.356;-2.906;2023-03-22T16:08:57;99798.53;;;14.68;100.00
70370;BME280;57790;51.356;-2.906;2023-03-22T16:11:59;99803.44;;;14.71;100.00
70370;BME280;57790;51.356;-2.906;2023-03-22T16:15:00;99801.41;;;14.66;100.00
70370;BME280;57790;51.356;-2.906;2023-03-22T16:18:00;99790.94;;;14.65;100.00
70370;BME280;57790;51.356;-2.906;2023-03-22T16:21:01;99781.31;;;14.64;100.00
70370;BME280;57790;51.356;-2.906;2023-03-22T16:24:04;99779.69;;;14.63;100.00
70370;BME280;57790;51.356;-2.906;2023-03-22T16:27:12;99775.16;;;14.63;100.00
70370;BME280;57790;51.356;-2.906;2023-03-22T16:30:14;99782.13;;;14.64;100.00
70370;BME280;57790;51.356;-2.906;2023-03-22T16:33:16;99772.72;;;14.62;100.00
70370;BME280;57790;51.356;-2.906;2023-03-22T16:36:20;99770.66;;;14.57;100.00
70370;BME280;57790;51.356;-2.906;2023-03-22T16:39:20;99766.34;;;14.56;100.00
70370;BME280;57790;51.356;-2.906;2023-03-22T16:42:23;99767.16;;;14.56;100.00
70370;BME280;57790;51.356;-2.906;2023-03-22T16:45:32;99756.50;;;14.56;100.00
70370;BME280;57790;51.356;-2.906;2023-03-22T16:48:33;99749.53;;;14.55;100.00
70370;BME280;57790;51.356;-2.906;2023-03-22T16:51:36;99754.25;;;14.53;100.00
70370;BME280;57790;51.356;-2.906;2023-03-22T16:54:36;99753.63;;;14.58;100.00